Time;durP1;ratioP1;P1;durP2;ratioP2;P2;SDS_P1;SDS_P2;PMS_P1;PMS_P2;Temp;Humidity;BMP_temperature;BMP_pressure;BME280_temperature;BME280_humidity;BME280_pressure;Samples;Min_cycle;Max_cycle;Signal;HPM_P1;HPM_P2
2022/03/05 00:00:13;;;;;;;10.13;3.95;;;;;;;;;;6261353;22;20004;-38
2022/03/05 00:02:38;;;;;;;7.18;3.55;;;;;;;;;;6261901;22;20088;-38
2022/03/05 00:05:04;;;;;;;6.63;3.55;;;;;;;;;;6260368;22;20211;-40
2022/03/05 00:07:29;;;;;;;6.55;3.75;;;;;;;;;;6261263;22;20459;-41
2022/03/05 00:09:55;;;;;;;6.75;3.45;;;;;;;;;;6260927;22;20731;-40
2022/03/05 00:12:20;;;;;;;5.90;3.97;;;;;;;;;;6261862;22;20011;-37
2022/03/05 00:14:45;;;;;;;6.50;3.53;;;;;;;;;;6261827;22;20098;-35
2022/03/05 00:17:11;;;;;;;6.20;3.75;;;;;;;;;;6261553;22;20751;-34
2022/03/05 00:19:36;;;;;;;6.82;3.97;;;;;;;;;;6261180;22;20072;-38
2022/03/05 00:22:02;;;;;;;7.13;3.45;;;;;;;;;;6261763;22;20741;-35
2022/03/05 00:24:28;;;;;;;4.95;3.17;;;;;;;;;;6262717;22;20007;-41
2022/03/05 00:26:54;;;;;;;7.22;4.20;;;;;;;;;;6261102;22;20379;-40
2022/03/05 00:29:19;;;;;;;5.57;3.67;;;;;;;;;;6261730;22;20046;-33
2022/03/05 00:31:44;;;;;;;4.70;3.45;;;;;;;;;;6261818;22;20012;-42
2022/03/05 00:34:10;;;;;;;5.63;3.70;;;;;;;;;;6261187;22;20011;-40
2022/03/05 00:36:36;;;;;;;5.55;3.55;;;;;;;;;;6261636;22;20862;-36
2022/03/05 00:39:01;;;;;;;5.88;3.53;;;;;;;;;;6261667;22;20003;-38
2022/03/05 00:41:26;;;;;;;6.15;3.30;;;;;;;;;;6262339;22;20778;-41
2022/03/05 00:43:52;;;;;;;7.22;3.25;;;;;;;;;;6261603;22;20011;-41
2022/03/05 00:46:17;;;;;;;5.22;3.60;;;;;;;;;;6261399;22;20401;-41
2022/03/05 00:48:43;;;;;;;6.45;3.92;;;;;;;;;;6260454;22;20004;-40
2022/03/05 00:51:08;;;;;;;6.63;3.70;;;;;;;;;;6261038;22;20008;-41
2022/03/05 00:53:33;;;;;;;5.68;3.53;;;;;;;;;;6262050;22;20007;-41
2022/03/05 00:55:59;;;;;;;3.63;2.80;;;;;;;;;;6261648;22;20011;-41
2022/03/05 00:58:24;;;;;;;6.05;3.67;;;;;;;;;;6263529;22;20034;-38
2022/03/05 01:00:52;;;;;;;6.57;3.65;;;;;;;;;;6263093;22;20415;-41
2022/03/05 01:03:18;;;;;;;4.93;3.10;;;;;;;;;;6263337;22;20011;-41
2022/03/05 01:05:43;;;;;;;5.90;3.50;;;;;;;;;;6262765;22;20011;-37
2022/03/05 01:08:09;;;;;;;6.53;3.53;;;;;;;;;;6263084;22;20008;-36
2022/03/05 01:10:34;;;;;;;5.30;3.35;;;;;;;;;;6262706;22;20112;-40
2022/03/05 01:13:00;;;;;;;5.03;3.35;;;;;;;;;;6263460;22;20011;-39
2022/03/05 01:15:25;;;;;;;6.97;3.50;;;;;;;;;;6262703;22;20033;-42
2022/03/05 01:17:51;;;;;;;5.07;2.80;;;;;;;;;;6263005;22;20547;-43
2022/03/05 01:20:16;;;;;;;4.55;3.25;;;;;;;;;;6262353;22;20367;-39
2022/03/05 01:22:41;;;;;;;4.93;3.30;;;;;;;;;;6263097;22;20015;-41
2022/03/05 01:25:07;;;;;;;6.93;3.38;;;;;;;;;;6262917;22;20926;-37
2022/03/05 01:27:33;;;;;;;4.47;3.22;;;;;;;;;;6265463;22;20015;-42
2022/03/05 01:29:58;;;;;;;4.97;3.38;;;;;;;;;;6265439;22;20004;-41
2022/03/05 01:32:24;;;;;;;5.50;3.38;;;;;;;;;;6265483;22;20014;-42
2022/03/05 01:34:49;;;;;;;5.22;3.42;;;;;;;;;;6265322;22;20414;-40
2022/03/05 01:37:15;;;;;;;4.18;3.13;;;;;;;;;;6266027;22;20038;-39
2022/03/05 01:39:41;;;;;;;4.68;3.15;;;;;;;;;;6265778;22;20000;-41
2022/03/05 01:42:07;;;;;;;5.20;3.10;;;;;;;;;;6238737;22;20008;-39
2022/03/05 01:44:32;;;;;;;4.40;2.83;;;;;;;;;;6265455;22;20007;-36
2022/03/05 01:47:01;;;;;;;4.55;3.10;;;;;;;;;;6265265;22;20435;-40
2022/03/05 01:49:26;;;;;;;4.75;2.97;;;;;;;;;;6265339;22;20081;-40
2022/03/05 01:51:54;;;;;;;3.95;2.70;;;;;;;;;;6265098;22;20008;-39
2022/03/05 01:54:19;;;;;;;6.88;2.90;;;;;;;;;;6265572;22;20012;-39
2022/03/05 01:56:45;;;;;;;3.30;2.63;;;;;;;;;;6265494;22;20493;-42
2022/03/05 01:59:10;;;;;;;3.53;2.83;;;;;;;;;;6265743;22;20498;-40
2022/03/05 02:01:36;;;;;;;5.88;3.17;;;;;;;;;;6265882;22;19999;-38
2022/03/05 02:04:01;;;;;;;4.07;2.83;;;;;;;;;;6265055;22;20085;-39
2022/03/05 02:06:27;;;;;;;5.63;2.90;;;;;;;;;;6264984;22;20003;-41
2022/03/05 02:08:53;;;;;;;4.25;3.28;;;;;;;;;;6265184;22;20004;-39
2022/03/05 02:11:18;;;;;;;3.65;3.08;;;;;;;;;;6212890;22;20679;-41
2022/03/05 02:13:44;;;;;;;3.35;2.90;;;;;;;;;;6265560;22;20003;-41
2022/03/05 02:16:09;;;;;;;6.60;3.25;;;;;;;;;;6237680;22;20008;-39
2022/03/05 02:18:35;;;;;;;3.35;2.88;;;;;;;;;;6265308;22;20004;-42
2022/03/05 02:21:00;;;;;;;4.07;3.22;;;;;;;;;;6265075;22;20375;-42
2022/03/05 02:23:26;;;;;;;3.30;2.90;;;;;;;;;;6265340;22;20008;-39
2022/03/05 02:25:54;;;;;;;3.70;2.95;;;;;;;;;;6265295;22;20007;-40
2022/03/05 02:28:20;;;;;;;5.97;3.20;;;;;;;;;;6265258;22;20008;-39
2022/03/05 02:30:46;;;;;;;4.13;3.10;;;;;;;;;;6264934;22;20003;-41
2022/03/05 02:33:11;;;;;;;4.25;3.22;;;;;;;;;;6265628;22;20475;-39
2022/03/05 02:35:37;;;;;;;4.55;3.22;;;;;;;;;;6264741;22;20428;-40
2022/03/05 02:38:02;;;;;;;4.07;3.30;;;;;;;;;;6265382;22;20004;-39
2022/03/05 02:40:28;;;;;;;4.20;3.08;;;;;;;;;;6265150;22;19996;-36
2022/03/05 02:42:53;;;;;;;4.93;3.50;;;;;;;;;;6264809;22;20091;-36
2022/03/05 02:45:18;;;;;;;4.22;3.40;;;;;;;;;;6265125;22;20003;-42
2022/03/05 02:47:44;;;;;;;4.95;3.13;;;;;;;;;;6264765;22;20341;-37
2022/03/05 02:50:09;;;;;;;3.85;2.70;;;;;;;;;;6264873;22;20007;-41
2022/03/05 02:52:38;;;;;;;3.28;2.88;;;;;;;;;;6265037;22;19999;-41
2022/03/05 02:55:04;;;;;;;3.75;2.72;;;;;;;;;;6264724;22;20444;-40
2022/03/05 02:57:29;;;;;;;4.00;3.00;;;;;;;;;;6264992;22;20016;-41
2022/03/05 03:00:20;;;;;;;4.00;2.92;;;;;;;;;;6275542;22;20073;-37
2022/03/05 03:02:46;;;;;;;6.47;2.97;;;;;;;;;;6264585;22;20012;-41
2022/03/05 03:05:12;;;;;;;3.25;2.70;;;;;;;;;;6264964;22;20004;-41
2022/03/05 03:07:37;;;;;;;4.30;2.60;;;;;;;;;;6264937;22;20027;-38
2022/03/05 03:10:04;;;;;;;3.95;2.85;;;;;;;;;;6264795;22;20008;-41
2022/03/05 03:12:30;;;;;;;3.65;2.85;;;;;;;;;;6264717;22;20003;-42
2022/03/05 03:14:55;;;;;;;5.68;2.90;;;;;;;;;;6265090;22;20069;-41
2022/03/05 03:17:20;;;;;;;2.85;2.53;;;;;;;;;;6264704;22;20602;-41
2022/03/05 03:19:46;;;;;;;3.42;2.63;;;;;;;;;;6265011;22;20414;-41
2022/03/05 03:22:11;;;;;;;3.90;2.92;;;;;;;;;;6264948;22;20410;-39
2022/03/05 03:24:37;;;;;;;3.03;2.58;;;;;;;;;;6264659;22;20029;-40
2022/03/05 03:27:02;;;;;;;3.95;3.13;;;;;;;;;;6264714;22;20012;-40
2022/03/05 03:29:28;;;;;;;3.25;2.58;;;;;;;;;;6265396;22;20052;-36
2022/03/05 03:31:53;;;;;;;3.15;2.58;;;;;;;;;;6265080;22;20026;-38
2022/03/05 03:34:18;;;;;;;4.15;3.08;;;;;;;;;;6264765;22;20068;-39
2022/03/05 03:36:44;;;;;;;3.25;2.40;;;;;;;;;;6264639;22;20004;-41
2022/03/05 03:39:10;;;;;;;3.65;2.75;;;;;;;;;;6264802;22;20111;-39
2022/03/05 03:41:35;;;;;;;3.30;2.40;;;;;;;;;;6265034;22;20004;-40
2022/03/05 03:44:00;;;;;;;3.17;2.50;;;;;;;;;;6264931;22;20004;-39
2022/03/05 03:46:26;;;;;;;3.90;2.65;;;;;;;;;;6264958;22;20018;-39
2022/03/05 03:48:51;;;;;;;2.90;2.30;;;;;;;;;;6263849;22;20004;-41
2022/03/05 03:51:17;;;;;;;4.25;2.55;;;;;;;;;;6264682;22;20015;-37
2022/03/05 03:53:42;;;;;;;3.35;2.80;;;;;;;;;;6264865;22;20007;-41
2022/03/05 03:56:07;;;;;;;3.58;2.50;;;;;;;;;;6264471;22;20166;-41
2022/03/05 03:58:33;;;;;;;3.65;2.78;;;;;;;;;;6264269;22;20490;-41
2022/03/05 04:00:58;;;;;;;2.80;2.20;;;;;;;;;;6264465;22;20007;-42
2022/03/05 04:03:24;;;;;;;3.53;2.80;;;;;;;;;;6264541;22;20378;-40
2022/03/05 04:05:49;;;;;;;2.67;2.38;;;;;;;;;;6264695;22;19999;-40
2022/03/05 04:10:58;;;;;;;3.08;2.70;;;;;;;;;;6264787;22;20445;-39
2022/03/05 04:13:24;;;;;;;3.13;2.50;;;;;;;;;;6237451;22;20015;-42
2022/03/05 04:15:49;;;;;;;3.85;2.63;;;;;;;;;;6264264;22;20003;-41
2022/03/05 04:18:14;;;;;;;3.60;2.88;;;;;;;;;;6264733;22;20011;-41
2022/03/05 04:20:40;;;;;;;3.40;2.70;;;;;;;;;;6264613;22;20012;-36
2022/03/05 04:23:05;;;;;;;3.90;3.00;;;;;;;;;;6264811;22;20098;-36
2022/03/05 04:25:31;;;;;;;4.28;3.15;;;;;;;;;;6264719;22;20008;-38
2022/03/05 04:27:56;;;;;;;3.90;2.90;;;;;;;;;;6237089;22;20452;-41
2022/03/05 04:30:21;;;;;;;3.05;2.63;;;;;;;;;;6266261;22;20003;-37
2022/03/05 04:32:47;;;;;;;2.78;2.35;;;;;;;;;;6265853;22;20010;-41
2022/03/05 04:35:12;;;;;;;4.18;2.97;;;;;;;;;;6239584;22;20026;-40
2022/03/05 04:37:38;;;;;;;3.65;2.80;;;;;;;;;;6266806;22;20628;-39
2022/03/05 04:40:05;;;;;;;3.15;2.80;;;;;;;;;;6266423;22;20003;-40
2022/03/05 04:42:30;;;;;;;2.85;2.58;;;;;;;;;;6265897;22;20519;-40
2022/03/05 04:44:56;;;;;;;4.15;2.75;;;;;;;;;;6266078;22;20010;-40
2022/03/05 04:47:21;;;;;;;3.60;2.85;;;;;;;;;;6266331;22;20003;-38
2022/03/05 04:49:47;;;;;;;3.95;2.97;;;;;;;;;;6265607;22;19999;-39
2022/03/05 04:52:12;;;;;;;3.90;2.72;;;;;;;;;;6266494;22;20000;-39
2022/03/05 04:54:38;;;;;;;3.90;3.03;;;;;;;;;;6265890;22;20376;-40
2022/03/05 04:57:03;;;;;;;3.20;2.90;;;;;;;;;;6265600;22;20012;-40
2022/03/05 04:59:29;;;;;;;3.20;2.70;;;;;;;;;;6266480;22;20004;-41
2022/03/05 05:01:56;;;;;;;3.67;2.75;;;;;;;;;;6265792;22;20019;-38
2022/03/05 05:04:22;;;;;;;3.67;2.72;;;;;;;;;;6266173;22;20082;-35
2022/03/05 05:06:47;;;;;;;3.22;2.60;;;;;;;;;;6265391;22;20031;-42
2022/03/05 05:09:12;;;;;;;3.90;2.88;;;;;;;;;;6265915;22;20025;-40
2022/03/05 05:11:39;;;;;;;2.83;2.20;;;;;;;;;;6266167;22;20494;-38
2022/03/05 05:14:04;;;;;;;3.85;2.63;;;;;;;;;;6265683;22;20094;-41
2022/03/05 05:16:29;;;;;;;3.20;2.30;;;;;;;;;;6265947;22;20065;-42
2022/03/05 05:21:39;;;;;;;3.42;3.08;;;;;;;;;;6266206;22;20023;-41
2022/03/05 05:24:05;;;;;;;3.53;2.90;;;;;;;;;;6265544;22;20464;-41
2022/03/05 05:26:30;;;;;;;3.15;2.85;;;;;;;;;;6265619;22;20442;-42
2022/03/05 05:28:55;;;;;;;4.20;3.20;;;;;;;;;;6265516;22;20012;-40
2022/03/05 05:31:21;;;;;;;5.18;2.90;;;;;;;;;;6265233;22;20030;-40
2022/03/05 05:33:46;;;;;;;4.93;3.40;;;;;;;;;;6264803;22;20398;-35
2022/03/05 05:36:13;;;;;;;4.20;3.08;;;;;;;;;;6237189;22;20151;-41
2022/03/05 05:38:39;;;;;;;3.35;2.88;;;;;;;;;;6264773;22;20000;-40
2022/03/05 05:41:04;;;;;;;3.58;2.97;;;;;;;;;;6264563;22;20011;-41
2022/03/05 05:43:30;;;;;;;4.38;3.38;;;;;;;;;;6264980;22;20095;-41
2022/03/05 05:45:55;;;;;;;4.13;3.13;;;;;;;;;;6264794;22;20003;-39
2022/03/05 05:48:20;;;;;;;3.30;2.72;;;;;;;;;;6264199;22;20516;-39
2022/03/05 05:50:46;;;;;;;3.75;3.20;;;;;;;;;;6264974;22;20000;-41
2022/03/05 05:53:11;;;;;;;6.75;3.40;;;;;;;;;;6264336;22;20008;-35
2022/03/05 05:55:37;;;;;;;4.53;3.22;;;;;;;;;;6264793;22;20007;-39
2022/03/05 05:58:02;;;;;;;3.97;3.33;;;;;;;;;;6264673;22;20011;-39
2022/03/05 06:00:28;;;;;;;4.57;3.10;;;;;;;;;;6265179;22;20031;-41
2022/03/05 06:02:53;;;;;;;3.97;3.17;;;;;;;;;;6265392;22;20007;-40
2022/03/05 06:05:19;;;;;;;6.72;3.47;;;;;;;;;;6265750;22;20008;-40
2022/03/05 06:07:44;;;;;;;14.07;5.80;;;;;;;;;;6265142;22;20003;-39
2022/03/05 06:10:10;;;;;;;6.82;4.10;;;;;;;;;;6264549;22;20829;-42
2022/03/05 06:12:36;;;;;;;8.23;4.47;;;;;;;;;;6264378;22;20003;-41
2022/03/05 06:15:03;;;;;;;11.32;4.68;;;;;;;;;;6265246;22;20014;-40
2022/03/05 06:17:29;;;;;;;13.32;4.63;;;;;;;;;;6265202;22;20503;-42
2022/03/05 06:19:54;;;;;;;10.40;5.68;;;;;;;;;;6263232;22;20011;-42
2022/03/05 06:22:20;;;;;;;11.55;7.70;;;;;;;;;;6263276;22;20000;-42
